Time;durP1;ratioP1;P1;durP2;ratioP2;P2;SDS_P1;SDS_P2;PMS_P1;PMS_P2;Temp;Humidity;BMP_temperature;BMP_pressure;BME280_temperature;BME280_humidity;BME280_pressure;Samples;Min_cycle;Max_cycle;Signal;HPM_P1;HPM_P2
2023/08/22 00:01:22;;;;;;;7.00;3.40;;;;;;;22.44;59.87;101963.66;5007859;28;20041;-66
2023/08/22 00:03:48;;;;;;;6.45;3.60;;;;;;;22.49;60.22;101957.06;5012836;28;20072;-66
2023/08/22 00:06:13;;;;;;;6.30;3.58;;;;;;;22.48;59.78;101959.06;5011047;28;20434;-66
2023/08/22 00:08:38;;;;;;;7.47;3.88;;;;;;;22.39;60.00;101962.88;5008481;28;20599;-65
2023/08/22 00:11:04;;;;;;;8.48;4.15;;;;;;;22.41;60.03;101969.91;4995608;28;20038;-66
2023/08/22 00:13:29;;;;;;;7.18;3.78;;;;;;;22.41;60.10;101969.06;5008564;28;20033;-66
2023/08/22 00:15:59;;;;;;;8.07;4.30;;;;;;;22.29;60.52;101964.72;5009357;28;20018;-66
2023/08/22 00:18:25;;;;;;;7.20;4.18;;;;;;;22.33;60.14;101967.78;5011310;28;20064;-66
2023/08/22 00:20:50;;;;;;;7.88;4.68;;;;;;;22.32;60.31;101965.22;5005153;28;20054;-66
2023/08/22 00:23:16;;;;;;;7.20;3.92;;;;;;;22.35;59.85;101958.97;5006002;28;20383;-66
2023/08/22 00:25:42;;;;;;;11.00;4.20;;;;;;;22.27;60.43;101961.34;5012216;28;20033;-66
2023/08/22 00:28:07;;;;;;;7.28;4.30;;;;;;;22.29;60.42;101966.69;5010607;28;20093;-66
2023/08/22 00:30:32;;;;;;;7.28;4.22;;;;;;;22.21;60.80;101956.91;5011928;28;20129;-66
2023/08/22 00:32:58;;;;;;;8.60;4.22;;;;;;;22.27;60.86;101957.66;5011249;28;20041;-66
2023/08/22 00:35:28;;;;;;;6.30;4.03;;;;;;;22.27;60.96;101963.31;5010374;28;20124;-66
2023/08/22 00:37:53;;;;;;;5.80;3.78;;;;;;;22.26;60.91;101958.81;5010810;28;20088;-65
2023/08/22 00:40:19;;;;;;;7.95;3.80;;;;;;;22.28;60.65;101957.38;5001559;28;20451;-66
2023/08/22 00:42:44;;;;;;;6.32;3.65;;;;;;;22.25;60.75;101959.97;4999867;28;20474;-66
2023/08/22 00:45:10;;;;;;;6.53;3.83;;;;;;;22.23;60.78;101957.44;5012247;28;20492;-66
2023/08/22 00:47:35;;;;;;;5.40;3.70;;;;;;;22.25;60.98;101954.31;5009576;28;20034;-65
2023/08/22 00:50:03;;;;;;;8.07;4.05;;;;;;;22.22;61.20;101952.09;5010085;28;20034;-66
2023/08/22 00:52:28;;;;;;;6.50;3.55;;;;;;;22.24;61.12;101952.63;5011552;28;20034;-65
2023/08/22 00:54:54;;;;;;;6.63;3.80;;;;;;;22.24;60.94;101939.34;5006639;28;20056;-66
2023/08/22 00:57:20;;;;;;;5.25;4.20;;;;;;;22.25;61.26;101941.00;4995190;28;20042;-66
2023/08/22 00:59:45;;;;;;;8.10;3.65;;;;;;;22.24;61.25;101945.00;4999718;28;20081;-65
2023/08/22 01:02:11;;;;;;;7.25;4.38;;;;;;;22.23;61.29;101945.28;5011268;28;20045;-65
2023/08/22 01:04:36;;;;;;;6.45;3.72;;;;;;;22.23;61.06;101937.63;5010928;28;20394;-65
2023/08/22 01:07:10;;;;;;;7.88;4.25;;;;;;;22.21;61.07;101934.28;5011066;28;20042;-67
2023/08/22 01:09:56;;;;;;;6.38;4.03;;;;;;;22.17;61.12;101935.22;5008168;28;20429;-65
2023/08/22 01:12:29;;;;;;;8.27;4.88;;;;;;;22.17;61.04;101941.72;5001725;28;20042;-65
2023/08/22 01:15:24;;;;;;;7.70;4.78;;;;;;;22.13;61.03;101940.63;4992342;28;20030;-66
2023/08/22 01:17:54;;;;;;;5.82;4.47;;;;;;;22.18;61.10;101940.56;5003611;28;20030;-65
2023/08/22 01:20:20;;;;;;;7.03;4.75;;;;;;;22.15;61.14;101943.16;5011492;28;20041;-65
2023/08/22 01:22:46;;;;;;;5.45;3.40;;;;;;;22.20;60.90;101949.56;5007250;28;20064;-65
2023/08/22 01:25:11;;;;;;;10.05;4.97;;;;;;;22.12;60.92;101938.91;4994605;28;20061;-66
2023/08/22 01:27:54;;;;;;;6.82;4.45;;;;;;;22.17;60.81;101947.38;5011715;28;20061;-66
2023/08/22 01:30:32;;;;;;;7.13;4.43;;;;;;;22.14;60.86;101936.66;4993878;28;20107;-66
2023/08/22 01:33:11;;;;;;;7.32;4.15;;;;;;;22.10;61.16;101927.06;4993911;28;20387;-65
2023/08/22 01:35:39;;;;;;;5.97;4.57;;;;;;;22.08;61.37;101926.53;5008558;28;20034;-65
2023/08/22 01:38:05;;;;;;;8.70;5.63;;;;;;;22.04;61.32;101920.63;5010609;28;20496;-66
2023/08/22 01:40:31;;;;;;;5.97;4.90;;;;;;;22.03;61.28;101929.44;5010594;28;20057;-66
2023/08/22 01:42:57;;;;;;;7.50;5.07;;;;;;;22.05;61.19;101929.97;5011512;28;20033;-65
2023/08/22 01:45:22;;;;;;;7.07;4.50;;;;;;;22.06;61.29;101920.34;5009804;28;20033;-65
2023/08/22 01:47:48;;;;;;;8.93;5.38;;;;;;;22.04;61.22;101928.28;5010477;28;20052;-66
2023/08/22 01:50:13;;;;;;;11.48;5.63;;;;;;;21.98;61.53;101921.88;5011749;28;20041;-66
2023/08/22 01:52:38;;;;;;;10.50;5.55;;;;;;;21.97;61.45;101923.03;5013517;28;20470;-66
2023/08/22 01:55:04;;;;;;;10.73;6.15;;;;;;;21.99;61.63;101923.53;5014214;28;20072;-66
2023/08/22 01:57:29;;;;;;;6.90;5.00;;;;;;;21.97;61.71;101925.00;5014059;28;20034;-66
2023/08/22 01:59:55;;;;;;;8.77;5.10;;;;;;;21.96;61.49;101917.66;5012078;28;20121;-66
2023/08/22 02:02:21;;;;;;;10.70;6.03;;;;;;;21.97;61.66;101925.84;5014839;28;20037;-66
2023/08/22 02:04:46;;;;;;;8.15;5.85;;;;;;;21.91;61.65;101926.22;5010505;28;20037;-66
2023/08/22 02:07:11;;;;;;;8.13;5.90;;;;;;;21.90;61.94;101918.88;5014217;28;20107;-65
2023/08/22 02:09:36;;;;;;;9.15;5.60;;;;;;;21.86;62.14;101917.81;5013489;28;20109;-65
2023/08/22 02:12:02;;;;;;;10.20;6.30;;;;;;;21.76;62.43;101913.97;5012999;28;20037;-66
2023/08/22 02:14:28;;;;;;;8.70;5.75;;;;;;;21.72;62.48;101912.03;5015203;28;20029;-66
2023/08/22 02:16:53;;;;;;;8.90;6.15;;;;;;;21.68;62.84;101919.44;5013627;28;20140;-66
2023/08/22 02:19:18;;;;;;;10.00;6.05;;;;;;;21.57;63.17;101910.25;5013487;28;20068;-66
2023/08/22 02:21:44;;;;;;;6.68;6.00;;;;;;;21.67;62.98;101904.47;5003878;28;20084;-66
2023/08/22 02:24:09;;;;;;;9.35;5.40;;;;;;;21.67;62.81;101904.47;4998791;28;20044;-66
2023/08/22 02:26:34;;;;;;;9.10;6.03;;;;;;;21.69;62.86;101905.03;5012675;28;20105;-66
2023/08/22 02:29:00;;;;;;;7.20;4.78;;;;;;;21.73;62.75;101899.59;5013434;28;20050;-66
2023/08/22 02:31:25;;;;;;;7.82;6.07;;;;;;;21.66;62.98;101897.16;5013372;28;20041;-66
2023/08/22 02:33:50;;;;;;;9.30;5.40;;;;;;;21.71;62.71;101902.72;5013898;28;20030;-66
2023/08/22 02:36:16;;;;;;;11.30;5.80;;;;;;;21.63;62.60;101896.91;5013169;28;20029;-65
2023/08/22 02:38:41;;;;;;;9.43;5.90;;;;;;;21.62;63.01;101900.91;5011827;28;20485;-66
2023/08/22 02:41:07;;;;;;;10.95;5.72;;;;;;;21.64;62.94;101898.59;5003297;28;20034;-65
2023/08/22 02:43:32;;;;;;;8.50;5.60;;;;;;;21.64;63.16;101887.28;5014359;28;20046;-65
2023/08/22 02:45:57;;;;;;;7.95;6.65;;;;;;;21.54;63.21;101899.59;5013349;28;20022;-65
2023/08/22 02:48:23;;;;;;;6.90;5.00;;;;;;;21.64;62.97;101904.25;5011571;28;20048;-66
2023/08/22 02:50:49;;;;;;;9.57;5.72;;;;;;;21.64;63.08;101898.59;5008156;28;20033;-65
2023/08/22 02:53:15;;;;;;;8.20;5.28;;;;;;;21.60;63.08;101903.16;5014143;28;20032;-65
2023/08/22 02:55:41;;;;;;;7.65;5.72;;;;;;;21.61;63.16;101900.03;5013479;28;20097;-66
2023/08/22 02:58:06;;;;;;;10.85;5.40;;;;;;;21.61;63.37;101907.66;5010206;28;20032;-65
2023/08/22 03:00:33;;;;;;;6.18;4.22;;;;;;;21.66;63.03;101902.81;5012323;28;20033;-65
2023/08/22 03:02:58;;;;;;;8.80;6.15;;;;;;;21.62;63.24;101895.25;5011851;28;20030;-66
2023/08/22 03:05:24;;;;;;;8.02;4.60;;;;;;;21.63;63.11;101897.75;5013163;28;20101;-65
2023/08/22 03:07:49;;;;;;;6.25;4.63;;;;;;;21.65;63.25;101891.78;5013019;28;20564;-65
2023/08/22 03:10:15;;;;;;;6.72;5.03;;;;;;;21.64;63.21;101895.78;5009514;28;20026;-66
2023/08/22 03:12:40;;;;;;;8.35;5.10;;;;;;;21.64;63.14;101905.09;5013793;28;20021;-65
2023/08/22 03:15:06;;;;;;;6.95;4.15;;;;;;;21.68;62.87;101894.84;5013843;28;20377;-65
2023/08/22 03:17:31;;;;;;;13.18;5.68;;;;;;;21.61;63.15;101904.84;5010868;28;20112;-65
2023/08/22 03:19:56;;;;;;;6.68;4.45;;;;;;;21.66;63.04;101899.16;5012855;28;20105;-65
2023/08/22 03:22:23;;;;;;;7.15;5.47;;;;;;;21.62;62.86;101901.72;5012881;28;20042;-65
2023/08/22 03:24:48;;;;;;;7.88;5.13;;;;;;;21.59;63.05;101896.69;5011094;28;20032;-65
2023/08/22 03:27:13;;;;;;;6.95;5.05;;;;;;;21.61;62.93;101894.38;5000165;28;20030;-65
2023/08/22 03:29:39;;;;;;;7.40;4.90;;;;;;;21.57;63.08;101898.94;5011506;28;20053;-65
2023/08/22 03:32:04;;;;;;;9.07;4.97;;;;;;;21.55;63.08;101887.97;5013233;28;20145;-65
2023/08/22 03:34:30;;;;;;;5.00;4.32;;;;;;;21.55;63.14;101902.09;5013228;28;20379;-65
2023/08/22 03:36:55;;;;;;;5.65;4.65;;;;;;;21.51;63.26;101903.00;5012592;28;20132;-66
2023/08/22 03:39:20;;;;;;;6.57;4.97;;;;;;;21.47;63.14;101899.09;5012111;28;20175;-65
2023/08/22 03:41:45;;;;;;;6.18;3.83;;;;;;;21.51;63.30;101894.53;5009041;28;20070;-66
2023/08/22 03:44:11;;;;;;;7.47;4.38;;;;;;;21.50;63.28;101896.50;5012140;28;20052;-66
2023/08/22 03:46:36;;;;;;;5.20;4.43;;;;;;;21.51;63.34;101889.72;5013427;28;20439;-66
2023/08/22 03:49:01;;;;;;;5.65;4.30;;;;;;;21.51;63.16;101901.00;5013214;28;20033;-66
2023/08/22 03:51:27;;;;;;;6.10;4.43;;;;;;;21.50;62.96;101898.50;5011294;28;20468;-66
2023/08/22 03:53:53;;;;;;;8.23;5.28;;;;;;;21.43;63.17;101887.56;5013042;28;20038;-66
2023/08/22 03:56:18;;;;;;;8.40;5.95;;;;;;;21.36;63.42;101889.91;5012182;28;20508;-66
2023/08/22 03:58:43;;;;;;;12.20;5.60;;;;;;;21.34;63.16;101892.19;5009535;28;20057;-66
2023/08/22 04:01:09;;;;;;;10.65;5.80;;;;;;;21.28;63.40;101894.19;5010113;28;20038;-66
2023/08/22 04:03:34;;;;;;;8.63;5.10;;;;;;;21.24;63.46;101900.75;5013084;28;20022;-66
2023/08/22 04:05:59;;;;;;;9.38;5.57;;;;;;;21.27;63.19;101889.69;5012028;28;20033;-66
2023/08/22 04:08:25;;;;;;;10.88;6.30;;;;;;;21.18;63.48;101887.81;5012538;28;20054;-66
2023/08/22 04:10:53;;;;;;;6.72;5.57;;;;;;;21.21;63.61;101885.25;5012080;28;20026;-65
2023/08/22 04:13:18;;;;;;;6.15;4.50;;;;;;;21.24;63.53;101890.28;5012304;28;20079;-65
2023/08/22 04:15:44;;;;;;;11.02;4.72;;;;;;;21.25;63.34;101891.97;5008719;28;20022;-65
2023/08/22 04:18:09;;;;;;;7.20;5.85;;;;;;;21.17;63.23;101884.16;5012596;28;20382;-65
2023/08/22 04:20:34;;;;;;;8.30;5.28;;;;;;;21.16;63.28;101885.31;5012148;28;20029;-65
2023/08/22 04:22:59;;;;;;;5.75;4.90;;;;;;;21.12;63.35;101884.22;5012597;28;20057;-65
2023/08/22 04:25:25;;;;;;;9.07;5.10;;;;;;;21.12;63.27;101877.75;5011712;28;20116;-65
2023/08/22 04:27:50;;;;;;;11.55;6.03;;;;;;;21.08;63.49;101881.16;5012001;28;20030;-65
2023/08/22 04:30:15;;;;;;;8.88;5.60;;;;;;;21.08;63.18;101881.16;5012470;28;20078;-66
2023/08/22 04:32:41;;;;;;;7.00;5.22;;;;;;;21.05;63.20;101875.25;5008082;28;20054;-66
2023/08/22 04:35:06;;;;;;;9.90;6.22;;;;;;;21.03;63.20;101878.41;4997800;28;20777;-66
2023/08/22 04:37:32;;;;;;;11.80;5.13;;;;;;;21.07;63.03;101881.47;4992709;28;20034;-66
2023/08/22 04:39:57;;;;;;;10.90;6.07;;;;;;;21.05;63.23;101887.41;4993796;28;20035;-66
2023/08/22 04:42:23;;;;;;;6.05;4.40;;;;;;;21.03;63.33;101884.03;5012186;28;20363;-66
2023/08/22 04:44:49;;;;;;;8.63;6.10;;;;;;;20.94;63.50;101887.78;5012515;28;20030;-66
2023/08/22 04:47:14;;;;;;;7.38;5.65;;;;;;;20.92;63.38;101887.28;5010656;28;20038;-66
2023/08/22 04:49:39;;;;;;;8.13;5.63;;;;;;;20.97;63.54;101885.22;5011019;28;20026;-66
2023/08/22 04:52:05;;;;;;;8.80;5.75;;;;;;;20.96;63.14;101889.19;5005907;28;20030;-66
2023/08/22 04:54:30;;;;;;;8.35;5.55;;;;;;;20.98;63.32;101897.34;5011476;28;20040;-66
2023/08/22 04:56:55;;;;;;;7.07;4.95;;;;;;;20.97;63.34;101895.69;5009532;28;20033;-66
2023/08/22 04:59:22;;;;;;;6.53;5.05;;;;;;;20.94;63.34;101897.09;4999549;28;20148;-65
2023/08/22 05:01:47;;;;;;;9.18;6.05;;;;;;;20.91;63.44;101899.72;5000297;28;20034;-66
2023/08/22 05:04:12;;;;;;;7.75;6.45;;;;;;;20.93;63.40;101891.75;5005717;28;20064;-66
2023/08/22 05:06:38;;;;;;;7.85;5.13;;;;;;;20.97;63.64;101901.31;5012242;28;20087;-66
2023/08/22 05:09:03;;;;;;;7.43;5.22;;;;;;;20.95;63.15;101896.00;5009407;28;20075;-66
2023/08/22 05:11:29;;;;;;;9.23;6.18;;;;;;;20.92;63.37;101898.56;5011904;28;20157;-66
2023/08/22 05:13:54;;;;;;;7.50;4.97;;;;;;;20.96;63.32;101891.19;5011928;28;20046;-66
2023/08/22 05:16:19;;;;;;;8.23;6.57;;;;;;;20.94;63.37;101894.28;5011426;28;20382;-66
2023/08/22 05:18:45;;;;;;;7.80;6.20;;;;;;;20.95;63.38;101893.16;5002285;28;20398;-66
2023/08/22 05:21:11;;;;;;;10.48;6.97;;;;;;;20.92;63.52;101892.91;4998804;28;20033;-66
2023/08/22 05:23:36;;;;;;;12.25;8.35;;;;;;;20.91;63.75;101894.06;5011124;28;20038;-66
2023/08/22 05:26:03;;;;;;;9.30;7.30;;;;;;;20.95;63.80;101895.16;5015138;28;20565;-66
2023/08/22 05:28:28;;;;;;;13.73;7.82;;;;;;;20.92;63.90;101904.19;5013480;28;20026;-65
2023/08/22 05:30:53;;;;;;;12.63;9.40;;;;;;;20.93;63.85;101894.59;5004824;28;20021;-66
2023/08/22 05:33:19;;;;;;;11.20;7.75;;;;;;;20.92;63.83;101896.56;5014398;28;20021;-66
2023/08/22 05:35:44;;;;;;;12.82;7.47;;;;;;;20.93;63.91;101891.75;5015517;28;20083;-66
2023/08/22 05:38:10;;;;;;;7.82;6.30;;;;;;;20.96;63.96;101894.00;5014358;28;20045;-66
2023/08/22 05:40:35;;;;;;;12.20;7.88;;;;;;;20.97;63.91;101895.69;5014326;28;20022;-66
2023/08/22 05:43:00;;;;;;;12.82;9.65;;;;;;;20.94;64.33;101880.16;5013685;28;20045;-66
2023/08/22 05:45:25;;;;;;;15.98;7.25;;;;;;;20.99;64.26;101882.13;5014452;28;20029;-66
2023/08/22 05:47:51;;;;;;;14.48;9.40;;;;;;;20.93;64.43;101891.75;5012640;28;20108;-66
2023/08/22 05:50:16;;;;;;;11.85;7.95;;;;;;;20.97;64.92;101879.59;5008036;28;20132;-65
2023/08/22 05:52:41;;;;;;;10.10;7.85;;;;;;;20.98;64.74;101894.53;5012841;28;20040;-65
2023/08/22 05:55:07;;;;;;;16.40;8.68;;;;;;;20.98;64.59;101903.84;5013519;28;20071;-65
2023/08/22 05:57:32;;;;;;;11.40;7.50;;;;;;;21.00;64.43;101900.72;5013325;28;20034;-65
2023/08/22 05:59:59;;;;;;;8.48;6.60;;;;;;;21.03;64.66;101894.50;5012695;28;20028;-65
2023/08/22 06:02:25;;;;;;;14.70;8.20;;;;;;;21.00;64.71;101898.75;5012241;28;20095;-65
2023/08/22 06:04:50;;;;;;;8.45;7.35;;;;;;;21.00;64.66;101901.56;5007955;28;20034;-65
2023/08/22 06:07:15;;;;;;;11.30;7.22;;;;;;;21.01;64.67;101906.06;5013488;28;20037;-65
2023/08/22 06:09:41;;;;;;;11.50;6.93;;;;;;;21.04;64.67;101910.28;5012794;28;20088;-65
2023/08/22 06:12:07;;;;;;;13.13;6.72;;;;;;;21.07;64.71;101919.00;5010098;28;20029;-64
2023/08/22 06:14:32;;;;;;;11.65;6.90;;;;;;;21.08;64.90;101908.53;5013330;28;20064;-64
2023/08/22 06:16:58;;;;;;;9.82;7.18;;;;;;;21.13;64.72;101911.31;5010932;28;20030;-64
2023/08/22 06:19:24;;;;;;;11.95;8.38;;;;;;;21.11;64.69;101907.97;5007552;28;20040;-64
2023/08/22 06:21:49;;;;;;;9.07;6.00;;;;;;;21.21;65.18;101912.63;4996484;28;20120;-64
2023/08/22 06:24:15;;;;;;;11.02;5.95;;;;;;;21.28;64.86;101911.13;5005041;28;20044;-64
2023/08/22 06:26:41;;;;;;;10.82;5.35;;;;;;;21.32;64.52;101915.06;5000989;28;20057;-64
2023/08/22 06:29:06;;;;;;;10.23;6.40;;;;;;;21.38;64.53;101912.19;5007794;28;20050;-63
2023/08/22 06:31:31;;;;;;;8.93;5.50;;;;;;;21.47;64.18;101916.06;5008584;28;20033;-63
2023/08/22 06:33:57;;;;;;;9.25;5.32;;;;;;;21.55;64.90;101907.75;5008382;28;20495;-64
2023/08/22 06:36:22;;;;;;;11.65;5.57;;;;;;;21.62;64.68;101915.03;4997309;28;20041;-65
2023/08/22 06:38:47;;;;;;;13.88;7.13;;;;;;;21.56;63.33;101917.06;5005775;28;20438;-63
2023/08/22 06:41:13;;;;;;;8.88;4.97;;;;;;;21.68;64.15;101917.47;5010066;28;20088;-64
2023/08/22 06:43:38;;;;;;;8.63;4.90;;;;;;;21.76;64.14;101919.59;4994950;28;20459;-64
2023/08/22 06:46:03;;;;;;;7.07;4.47;;;;;;;21.80;63.67;101917.84;5010060;28;20484;-64
2023/08/22 06:48:29;;;;;;;5.30;4.03;;;;;;;21.85;64.06;101924.59;5009077;28;20018;-64
2023/08/22 06:50:54;;;;;;;7.88;4.50;;;;;;;21.88;63.13;101926.81;4998963;28;20038;-65
2023/08/22 06:53:20;;;;;;;7.30;4.32;;;;;;;21.89;63.03;101936.97;5004145;28;20026;-65
2023/08/22 06:55:46;;;;;;;7.63;4.05;;;;;;;21.90;62.66;101936.69;4996547;28;20042;-65
2023/08/22 06:58:12;;;;;;;7.40;3.78;;;;;;;21.95;62.28;101945.09;4993886;28;20065;-64
2023/08/22 07:00:37;;;;;;;5.25;3.85;;;;;;;21.97;62.01;101944.78;4993327;28;20030;-65
2023/08/22 07:03:02;;;;;;;6.05;4.20;;;;;;;22.00;61.47;101947.00;4993632;28;20033;-64
2023/08/22 07:05:28;;;;;;;7.28;3.90;;;;;;;22.02;61.73;101945.56;4994038;28;20032;-65
2023/08/22 07:07:53;;;;;;;6.53;3.58;;;;;;;22.08;61.63;101949.13;4993101;28;20033;-65
2023/08/22 07:10:19;;;;;;;4.78;3.20;;;;;;;22.11;61.28;101954.19;5008074;28;20024;-65
2023/08/22 07:12:44;;;;;;;7.70;3.40;;;;;;;22.15;61.25;101949.63;5012999;28;20037;-65
2023/08/22 07:15:10;;;;;;;5.85;3.22;;;;;;;22.20;60.89;101952.38;5012325;28;20030;-65
2023/08/22 07:17:35;;;;;;;6.10;3.65;;;;;;;22.23;60.62;101954.59;5013294;28;20029;-65
2023/08/22 07:20:01;;;;;;;8.95;3.60;;;;;;;22.25;60.37;101960.81;5012900;28;20539;-65
2023/08/22 07:22:27;;;;;;;6.82;3.10;;;;;;;22.29;60.09;101950.56;5012376;28;20045;-65
2023/08/22 07:24:52;;;;;;;5.85;3.25;;;;;;;22.29;59.03;101950.56;5011322;28;20381;-65
2023/08/22 07:27:18;;;;;;;5.88;2.72;;;;;;;22.33;59.17;101950.81;5009755;28;20033;-65
2023/08/22 07:29:44;;;;;;;5.63;2.78;;;;;;;22.36;59.12;101954.97;5011064;28;20132;-65
2023/08/22 07:32:09;;;;;;;5.38;2.90;;;;;;;22.41;57.58;101954.94;5012870;28;20018;-65
2023/08/22 07:34:34;;;;;;;7.30;3.70;;;;;;;22.44;57.32;101952.31;5012816;28;20120;-64
2023/08/22 07:37:00;;;;;;;8.98;3.20;;;;;;;22.50;57.85;101951.09;5011788;28;20014;-65
2023/08/22 07:39:27;;;;;;;4.85;2.97;;;;;;;22.58;57.53;101946.72;5010911;28;20034;-64
2023/08/22 07:41:53;;;;;;;5.55;3.78;;;;;;;22.67;56.56;101944.84;5012006;28;20069;-65
2023/08/22 07:44:18;;;;;;;7.63;3.55;;;;;;;22.68;57.41;101946.56;5005784;28;20065;-65
2023/08/22 07:46:43;;;;;;;8.35;3.92;;;;;;;22.70;56.62;101949.06;5012693;28;20355;-65
2023/08/22 07:49:09;;;;;;;9.15;5.53;;;;;;;22.68;56.76;101949.38;5012284;28;20026;-65
2023/08/22 07:51:36;;;;;;;4.95;3.30;;;;;;;22.68;57.50;101952.22;5011401;28;20035;-65
2023/08/22 07:54:02;;;;;;;7.72;4.78;;;;;;;22.66;57.58;101954.50;5012349;28;20049;-65
2023/08/22 07:56:27;;;;;;;9.73;4.53;;;;;;;22.67;57.72;101961.00;5012687;28;20103;-64
2023/08/22 07:58:52;;;;;;;8.90;5.43;;;;;;;22.65;57.46;101954.81;5008863;28;20033;-65
2023/08/22 08:01:18;;;;;;;7.97;5.40;;;;;;;22.63;57.21;101954.28;5001773;28;20041;-65
2023/08/22 08:03:43;;;;;;;10.32;5.30;;;;;;;22.59;56.91;101954.06;5011719;28;20018;-64
2023/08/22 08:06:08;;;;;;;6.50;3.65;;;;;;;22.58;57.35;101958.03;5012027;28;20129;-65
2023/08/22 08:08:34;;;;;;;7.75;4.70;;;;;;;22.56;57.58;101963.19;5012180;28;20413;-64
2023/08/22 08:11:20;;;;;;;5.85;3.08;;;;;;;22.59;57.74;101962.53;5011245;28;20061;-64
2023/08/22 08:13:45;;;;;;;8.68;5.90;;;;;;;22.55;56.99;101958.66;5011617;28;20103;-64
2023/08/22 08:16:10;;;;;;;8.75;5.03;;;;;;;22.54;57.06;101965.47;5006208;28;20466;-64
2023/08/22 08:18:36;;;;;;;5.68;3.95;;;;;;;22.54;57.46;101968.28;5008313;28;20125;-65
2023/08/22 08:21:02;;;;;;;9.65;5.32;;;;;;;22.54;57.32;101973.94;5011604;28;20061;-64
2023/08/22 08:23:27;;;;;;;5.30;3.03;;;;;;;22.56;57.94;101971.66;5010166;28;20379;-64
2023/08/22 08:25:52;;;;;;;15.05;5.75;;;;;;;22.52;57.64;101976.25;5010344;28;20479;-64
2023/08/22 08:28:18;;;;;;;8.02;4.68;;;;;;;22.54;58.11;101985.25;5011417;28;20050;-63
2023/08/22 08:30:43;;;;;;;5.38;2.83;;;;;;;22.56;57.68;101968.84;5006691;28;20036;-65
2023/08/22 08:33:09;;;;;;;4.78;2.97;;;;;;;22.55;58.22;101982.13;5010955;28;20018;-64
2023/08/22 08:35:34;;;;;;;7.47;4.20;;;;;;;22.55;57.78;101975.63;5007038;28;20029;-64
2023/08/22 08:37:59;;;;;;;10.07;5.13;;;;;;;22.54;57.66;101971.13;4999713;28;20087;-64
2023/08/22 08:40:34;;;;;;;6.05;3.53;;;;;;;22.58;58.32;101977.00;5010052;28;20034;-64
2023/08/22 08:42:59;;;;;;;7.93;4.65;;;;;;;22.55;57.80;101975.63;5010850;28;20112;-64
2023/08/22 08:45:26;;;;;;;8.68;4.70;;;;;;;22.57;58.21;101973.34;5011642;28;20109;-64
2023/08/22 08:47:52;;;;;;;9.20;4.38;;;;;;;22.58;57.66;101958.03;5011024;28;20080;-64
2023/08/22 08:50:17;;;;;;;7.57;3.50;;;;;;;22.62;58.37;101958.25;5010284;28;20030;-64
2023/08/22 08:52:45;;;;;;;6.82;2.70;;;;;;;22.65;58.20;101969.81;5005947;28;20048;-65
2023/08/22 08:55:10;;;;;;;7.47;3.08;;;;;;;22.65;58.22;101969.81;4997311;28;20026;-65
2023/08/22 08:57:36;;;;;;;4.20;2.83;;;;;;;22.70;58.14;101974.53;5007466;28;20034;-64
2023/08/22 09:00:02;;;;;;;6.65;3.30;;;;;;;22.71;58.43;101973.38;5009140;28;20026;-65
2023/08/22 09:02:28;;;;;;;3.17;2.40;;;;;;;22.75;58.19;101974.44;5009605;28;20061;-64
2023/08/22 09:04:53;;;;;;;5.85;2.80;;;;;;;22.76;58.19;101979.81;5006161;28;20061;-64
2023/08/22 09:07:19;;;;;;;8.52;4.75;;;;;;;22.74;58.60;101976.44;5007166;28;20045;-63
2023/08/22 09:09:45;;;;;;;7.85;3.47;;;;;;;22.75;58.39;101972.47;5011569;28;20033;-63
2023/08/22 09:12:10;;;;;;;9.57;4.22;;;;;;;22.75;58.37;101964.00;5007180;28;20022;-64
2023/08/22 09:14:47;;;;;;;6.38;3.90;;;;;;;22.76;58.46;101974.16;5009961;28;20034;-63
2023/08/22 09:17:14;;;;;;;11.20;6.57;;;;;;;22.76;58.34;101982.66;5009576;28;20080;-64
2023/08/22 09:19:39;;;;;;;9.43;7.07;;;;;;;22.76;58.14;101974.16;5010623;28;20030;-63
2023/08/22 09:22:05;;;;;;;7.82;5.05;;;;;;;22.79;58.43;101982.03;5005670;28;20431;-65
2023/08/22 09:24:32;;;;;;;10.25;5.60;;;;;;;22.83;58.47;101975.72;5011493;28;20018;-64
2023/08/22 09:27:00;;;;;;;11.48;6.00;;;;;;;22.84;58.17;101977.44;5008362;28;20041;-64
2023/08/22 09:29:33;;;;;;;10.85;7.25;;;;;;;22.81;58.35;101973.22;5008295;28;20072;-64
2023/08/22 09:32:01;;;;;;;11.50;6.38;;;;;;;22.83;58.65;101970.06;5010284;28;20030;-65
2023/08/22 09:34:26;;;;;;;13.07;7.38;;;;;;;22.79;58.77;101970.72;5010269;28;20056;-65
2023/08/22 09:36:55;;;;;;;10.65;6.72;;;;;;;22.82;58.72;101971.22;5010686;28;20198;-64
2023/08/22 09:39:22;;;;;;;10.23;6.80;;;;;;;22.90;58.97;101964.88;4999602;28;20065;-64
2023/08/22 09:41:54;;;;;;;12.02;7.28;;;;;;;23.10;59.40;101969.34;5009012;28;20092;-64
2023/08/22 09:44:24;;;;;;;14.80;6.97;;;;;;;23.13;59.35;101980.91;5009059;28;20026;-64
2023/08/22 09:46:54;;;;;;;9.73;6.65;;;;;;;23.26;58.97;101979.25;5010455;28;20292;-64
2023/08/22 09:49:20;;;;;;;12.98;6.10;;;;;;;23.29;59.17;101978.63;5009227;28;20037;-64
2023/08/22 09:51:47;;;;;;;11.25;6.30;;;;;;;23.28;57.83;101982.63;5011199;28;20068;-64
2023/08/22 09:54:14;;;;;;;12.15;7.00;;;;;;;23.28;57.39;101983.47;5009264;28;20482;-64
2023/08/22 09:56:40;;;;;;;11.75;5.78;;;;;;;23.28;56.78;101986.28;5005157;28;20025;-64
2023/08/22 09:59:06;;;;;;;9.65;5.28;;;;;;;23.29;56.53;101984.28;5002116;28;20026;-65
2023/08/22 10:01:36;;;;;;;9.45;5.10;;;;;;;23.27;57.00;101987.44;5009971;28;20034;-64
2023/08/22 10:04:05;;;;;;;10.45;5.22;;;;;;;23.24;56.59;101987.22;5008391;28;20390;-64
2023/08/22 10:06:33;;;;;;;8.50;4.30;;;;;;;23.26;56.41;101988.59;5011400;28;20065;-64
2023/08/22 10:09:04;;;;;;;7.97;4.28;;;;;;;23.31;55.93;101986.84;5014335;28;20367;-64
2023/08/22 10:11:30;;;;;;;10.35;4.80;;;;;;;23.31;55.03;101981.16;5013967;28;20057;-64
2023/08/22 10:13:56;;;;;;;5.20;3.10;;;;;;;23.35;55.10;101977.38;5003899;28;20069;-64
2023/08/22 10:16:21;;;;;;;10.82;3.80;;;;;;;23.37;55.54;101975.06;5009040;28;20026;-64
2023/08/22 10:18:47;;;;;;;7.88;3.53;;;;;;;23.44;54.70;101980.34;5013700;28;20036;-64
2023/08/22 10:21:12;;;;;;;8.98;4.15;;;;;;;23.53;54.54;101967.94;5012928;28;20030;-64
2023/08/22 10:23:53;;;;;;;6.70;3.03;;;;;;;23.65;55.00;101960.91;5014272;28;20026;-64
2023/08/22 10:26:28;;;;;;;7.43;3.05;;;;;;;23.68;54.17;101974.50;5011959;28;20030;-64
2023/08/22 10:29:17;;;;;;;8.25;3.13;;;;;;;23.86;54.28;101981.22;5012305;28;20104;-64
2023/08/22 10:32:00;;;;;;;8.18;3.30;;;;;;;23.85;54.89;101973.84;4996917;28;20108;-64
2023/08/22 10:34:46;;;;;;;9.20;3.47;;;;;;;23.81;55.29;101964.31;5010746;28;20041;-65
2023/08/22 10:37:11;;;;;;;7.53;4.38;;;;;;;23.77;55.19;101967.75;5008054;28;20077;-65
2023/08/22 10:39:38;;;;;;;9.77;3.97;;;;;;;23.86;55.63;101969.88;5010399;28;20065;-65
2023/08/22 10:42:04;;;;;;;8.88;3.65;;;;;;;23.93;54.84;101961.75;5009595;28;20490;-64
2023/08/22 10:44:30;;;;;;;6.47;3.15;;;;;;;24.00;54.69;101959.34;5009353;28;20026;-64
2023/08/22 10:47:03;;;;;;;9.98;3.47;;;;;;;24.12;54.38;101968.16;5010768;28;20037;-65
2023/08/22 10:49:33;;;;;;;5.85;3.08;;;;;;;24.19;54.15;101956.38;5013789;28;20136;-66
2023/08/22 10:52:07;;;;;;;6.15;2.70;;;;;;;24.19;53.71;101959.22;5008150;28;20026;-65
2023/08/22 10:55:01;;;;;;;7.30;2.67;;;;;;;24.19;53.74;101960.03;4997045;28;20133;-64
2023/08/22 10:57:28;;;;;;;8.20;2.58;;;;;;;24.20;53.29;101958.88;5002341;28;20053;-64
2023/08/22 10:59:59;;;;;;;4.85;2.05;;;;;;;24.31;52.10;101953.81;5010174;28;20061;-64
2023/08/22 11:02:35;;;;;;;4.20;1.93;;;;;;;24.34;51.92;101956.03;5011929;28;20053;-65
2023/08/22 11:05:06;;;;;;;5.22;1.80;;;;;;;24.32;50.19;101951.81;5010241;28;20537;-65
2023/08/22 11:07:34;;;;;;;2.47;1.10;;;;;;;24.34;49.22;101952.34;5009913;28;20109;-65
2023/08/22 11:09:59;;;;;;;4.55;1.38;;;;;;;24.41;49.29;101950.78;5009598;28;20021;-65
2023/08/22 11:12:27;;;;;;;3.83;1.40;;;;;;;24.36;48.96;101950.00;5011463;28;20036;-63
2023/08/22 11:14:54;;;;;;;3.38;1.50;;;;;;;24.33;48.44;101956.34;5009174;28;20040;-65
2023/08/22 11:17:21;;;;;;;5.22;1.27;;;;;;;24.32;47.80;101963.16;5012803;28;20350;-65
2023/08/22 11:19:47;;;;;;;3.47;1.52;;;;;;;24.29;47.79;101967.50;5011864;28;20033;-65
2023/08/22 11:22:14;;;;;;;4.45;1.40;;;;;;;24.28;47.57;101967.78;5009709;28;20034;-65